Time;durP1;ratioP1;P1;durP2;ratioP2;P2;SDS_P1;SDS_P2;PMS_P1;PMS_P2;Temp;Humidity;BMP_temperature;BMP_pressure;BME280_temperature;BME280_humidity;BME280_pressure;Samples;Min_cycle;Max_cycle;Signal;HPM_P1;HPM_P2
2024/02/18 00:01:05;;;;;;;18.25;10.85;;;9.80;99.90;;;;;;4974743;28;20057;-46
2024/02/18 00:03:32;;;;;;;15.05;9.55;;;9.90;99.90;;;;;;4973475;28;20051;-43
2024/02/18 00:05:59;;;;;;;15.27;10.00;;;9.90;99.90;;;;;;4975786;28;20042;-42
2024/02/18 00:08:26;;;;;;;14.50;10.40;;;9.90;99.90;;;;;;4975047;28;20074;-46
2024/02/18 00:10:53;;;;;;;15.82;9.82;;;9.90;99.90;;;;;;4977026;28;20056;-41
2024/02/18 00:13:20;;;;;;;18.83;10.60;;;9.90;99.90;;;;;;4975400;28;20601;-46
2024/02/18 00:15:47;;;;;;;13.75;9.38;;;9.90;99.90;;;;;;4976698;28;20384;-44
2024/02/18 00:18:14;;;;;;;18.23;11.38;;;9.90;99.90;;;;;;4982975;28;20047;-45
2024/02/18 00:20:41;;;;;;;14.55;10.20;;;9.90;99.90;;;;;;4980186;28;20244;-41
2024/02/18 00:23:08;;;;;;;15.30;11.13;;;9.90;99.90;;;;;;4977730;28;20043;-45
2024/02/18 00:25:35;;;;;;;15.75;9.80;;;9.90;99.90;;;;;;4977882;28;20403;-43
2024/02/18 00:28:02;;;;;;;15.52;9.95;;;9.90;99.90;;;;;;4984010;28;20074;-45
2024/02/18 00:30:29;;;;;;;16.70;10.65;;;9.90;99.90;;;;;;4993416;28;20039;-45
2024/02/18 00:32:55;;;;;;;15.52;10.75;;;9.90;99.90;;;;;;4981240;28;20047;-47
2024/02/18 00:35:23;;;;;;;15.43;10.52;;;9.90;99.90;;;;;;4983598;28;20412;-46
2024/02/18 00:37:50;;;;;;;18.95;10.55;;;9.80;99.90;;;;;;4982066;28;20043;-44
2024/02/18 00:40:16;;;;;;;19.40;11.95;;;9.90;99.90;;;;;;4983619;28;20062;-47
2024/02/18 00:42:44;;;;;;;20.25;12.07;;;9.90;99.90;;;;;;4981979;28;20137;-45
2024/02/18 00:45:12;;;;;;;20.10;13.23;;;9.80;99.90;;;;;;4984246;28;20053;-45
2024/02/18 00:47:39;;;;;;;18.92;12.30;;;9.90;99.90;;;;;;4982975;28;20118;-45
2024/02/18 00:50:07;;;;;;;17.30;11.00;;;9.90;99.90;;;;;;4984358;28;20555;-43
2024/02/18 00:52:34;;;;;;;16.48;10.35;;;9.90;99.90;;;;;;4978423;28;20062;-46
2024/02/18 00:55:01;;;;;;;15.25;10.52;;;9.90;99.90;;;;;;4975446;28;20050;-47
2024/02/18 00:57:28;;;;;;;15.00;10.18;;;9.90;99.90;;;;;;4971526;28;20432;-44
2024/02/18 00:59:55;;;;;;;22.48;10.82;;;9.90;99.90;;;;;;4975362;28;20046;-43
2024/02/18 01:02:22;;;;;;;16.35;10.75;;;9.80;99.90;;;;;;4984715;28;20574;-45
2024/02/18 01:04:49;;;;;;;19.67;11.68;;;9.80;99.90;;;;;;4984250;28;20061;-49
2024/02/18 01:07:16;;;;;;;20.05;10.45;;;9.80;99.90;;;;;;4974821;28;20054;-47
2024/02/18 01:09:44;;;;;;;14.80;9.75;;;9.80;99.90;;;;;;4982424;28;20050;-45
2024/02/18 01:12:11;;;;;;;17.60;10.35;;;9.80;99.90;;;;;;4972913;28;20054;-44
2024/02/18 01:14:38;;;;;;;17.67;11.18;;;9.80;99.90;;;;;;4975294;28;20178;-45
2024/02/18 01:17:05;;;;;;;17.35;9.35;;;9.80;99.90;;;;;;4971077;28;20055;-47
2024/02/18 01:19:32;;;;;;;16.27;10.10;;;9.80;99.90;;;;;;4976439;28;20373;-44
2024/02/18 01:21:59;;;;;;;14.95;9.88;;;9.80;99.90;;;;;;4973100;28;20049;-44
2024/02/18 01:24:27;;;;;;;15.98;10.32;;;9.80;99.90;;;;;;4977210;28;20039;-45
2024/02/18 01:26:54;;;;;;;15.32;10.20;;;9.80;99.90;;;;;;4974369;28;20047;-41
2024/02/18 01:29:22;;;;;;;14.43;10.02;;;9.80;99.90;;;;;;4978776;28;20137;-47
2024/02/18 01:31:49;;;;;;;16.88;10.85;;;9.80;99.90;;;;;;4967699;28;20138;-43
2024/02/18 01:34:17;;;;;;;13.93;9.52;;;9.80;99.90;;;;;;4970787;28;20124;-43
2024/02/18 01:36:44;;;;;;;14.70;9.52;;;9.80;99.90;;;;;;4971242;28;20050;-42
2024/02/18 01:39:11;;;;;;;13.32;9.43;;;9.80;99.90;;;;;;4970642;28;20051;-47
2024/02/18 01:41:38;;;;;;;15.35;9.98;;;9.70;99.90;;;;;;4973718;28;20235;-46
2024/02/18 01:44:05;;;;;;;16.98;10.38;;;9.70;99.90;;;;;;4973860;28;20471;-49
2024/02/18 01:46:32;;;;;;;15.25;10.05;;;9.70;99.90;;;;;;4972248;28;20042;-45
2024/02/18 01:48:59;;;;;;;17.83;10.50;;;9.60;99.90;;;;;;4969931;28;20062;-44
2024/02/18 01:51:27;;;;;;;15.75;9.57;;;9.60;99.90;;;;;;4971329;28;20113;-44
2024/02/18 01:53:54;;;;;;;15.73;10.15;;;9.60;99.90;;;;;;4973687;28;20428;-46
2024/02/18 01:56:22;;;;;;;17.77;10.65;;;9.60;99.90;;;;;;4971887;28;20596;-41
2024/02/18 01:58:49;;;;;;;14.85;9.88;;;9.60;99.90;;;;;;4968092;28;20046;-45
2024/02/18 02:01:17;;;;;;;17.27;9.80;;;9.60;99.90;;;;;;4969334;28;20684;-44
2024/02/18 02:03:46;;;;;;;16.60;10.60;;;9.60;99.90;;;;;;4970690;28;20050;-45
2024/02/18 02:06:15;;;;;;;16.30;10.50;;;9.60;99.90;;;;;;4971387;28;20045;-42
2024/02/18 02:08:43;;;;;;;14.18;10.52;;;9.60;99.90;;;;;;4971243;28;20460;-45
2024/02/18 02:11:10;;;;;;;16.45;10.57;;;9.60;99.90;;;;;;4970644;28;20050;-45
2024/02/18 02:13:37;;;;;;;17.20;11.23;;;9.60;99.90;;;;;;4972511;28;20125;-45
2024/02/18 02:16:05;;;;;;;14.60;10.00;;;9.60;99.90;;;;;;4975532;28;20152;-43
2024/02/18 02:18:33;;;;;;;18.15;11.13;;;9.60;99.90;;;;;;4974570;28;20495;-44
2024/02/18 02:21:00;;;;;;;20.33;10.55;;;9.60;99.90;;;;;;4973196;28;20266;-41
2024/02/18 02:23:27;;;;;;;15.80;10.85;;;9.50;99.90;;;;;;4979068;28;20053;-47
2024/02/18 02:25:54;;;;;;;14.93;9.55;;;9.60;99.90;;;;;;4975905;28;20050;-48
2024/02/18 02:28:24;;;;;;;15.63;10.15;;;9.60;99.90;;;;;;4971152;28;20432;-45
2024/02/18 02:30:53;;;;;;;17.73;11.00;;;9.60;99.90;;;;;;4974045;28;20073;-47
2024/02/18 02:33:21;;;;;;;15.93;10.52;;;9.50;99.90;;;;;;4972642;28;20042;-44
2024/02/18 02:35:49;;;;;;;17.17;9.80;;;9.60;99.90;;;;;;4979711;28;20061;-45
2024/02/18 02:38:15;;;;;;;16.23;10.43;;;9.60;99.90;;;;;;4970464;28;20039;-42
2024/02/18 02:40:42;;;;;;;17.92;10.20;;;9.60;99.90;;;;;;4968888;28;20051;-45
2024/02/18 02:43:16;;;;;;;14.65;10.35;;;9.60;99.90;;;;;;4969372;28;20117;-45
2024/02/18 02:45:43;;;;;;;15.15;9.68;;;9.60;99.90;;;;;;4972971;28;20528;-42
2024/02/18 02:48:10;;;;;;;19.33;10.18;;;9.60;99.90;;;;;;4973326;28;20266;-46
2024/02/18 02:50:37;;;;;;;17.90;10.65;;;9.60;99.90;;;;;;4973296;28;20516;-44
2024/02/18 02:53:05;;;;;;;16.98;10.13;;;9.60;99.90;;;;;;4975277;28;20423;-48
2024/02/18 02:55:32;;;;;;;14.05;9.52;;;9.60;99.90;;;;;;4971276;28;20043;-45
2024/02/18 02:57:59;;;;;;;17.20;10.02;;;9.60;99.90;;;;;;4967083;28;20047;-45
2024/02/18 03:00:27;;;;;;;15.25;10.27;;;9.60;99.90;;;;;;4971749;28;20070;-46
2024/02/18 03:02:55;;;;;;;14.77;9.52;;;9.60;99.90;;;;;;4974217;28;20129;-42
2024/02/18 03:05:22;;;;;;;14.85;10.50;;;9.60;99.90;;;;;;4972750;28;20043;-46
2024/02/18 03:07:49;;;;;;;15.52;10.88;;;9.60;99.90;;;;;;4970491;28;20405;-47
2024/02/18 03:10:16;;;;;;;15.65;10.43;;;9.60;99.90;;;;;;4971981;28;20149;-47
2024/02/18 03:12:43;;;;;;;17.67;11.10;;;9.60;99.90;;;;;;4970816;28;21365;-46
2024/02/18 03:15:10;;;;;;;17.70;11.40;;;9.60;99.90;;;;;;4973814;28;20121;-41
2024/02/18 03:17:37;;;;;;;17.73;11.20;;;9.50;99.90;;;;;;4972672;28;20046;-42
2024/02/18 03:20:09;;;;;;;18.27;11.40;;;9.50;99.90;;;;;;4933059;28;1038279;-42
2024/02/18 03:22:36;;;;;;;15.88;9.75;;;9.50;99.90;;;;;;4975911;28;20050;-44
2024/02/18 03:25:04;;;;;;;18.40;10.82;;;9.50;99.90;;;;;;4970233;28;20047;-47
2024/02/18 03:27:31;;;;;;;18.63;10.68;;;9.60;99.90;;;;;;4971526;28;20135;-47
2024/02/18 03:29:58;;;;;;;15.23;10.43;;;9.50;99.90;;;;;;4969762;28;20393;-45
2024/02/18 03:32:25;;;;;;;15.48;10.30;;;9.50;99.90;;;;;;4971614;28;20077;-47
2024/02/18 03:34:52;;;;;;;16.42;11.10;;;9.50;99.90;;;;;;4973299;28;20042;-42
2024/02/18 03:37:19;;;;;;;16.52;11.23;;;9.50;99.90;;;;;;4976286;28;20059;-44
2024/02/18 03:39:46;;;;;;;14.88;10.00;;;9.50;99.90;;;;;;4977218;28;20050;-47
2024/02/18 03:42:13;;;;;;;14.63;10.15;;;9.50;99.90;;;;;;4981722;28;20220;-45
2024/02/18 03:44:40;;;;;;;15.55;9.73;;;9.50;99.90;;;;;;4971665;28;20145;-43
2024/02/18 03:47:08;;;;;;;13.85;9.63;;;9.50;99.90;;;;;;4973324;28;20540;-41
2024/02/18 03:49:35;;;;;;;18.33;10.73;;;9.50;99.90;;;;;;4980723;28;20047;-45
2024/02/18 03:52:02;;;;;;;15.75;9.98;;;9.50;99.90;;;;;;4985900;28;20058;-41
2024/02/18 03:54:30;;;;;;;18.33;10.23;;;9.50;99.90;;;;;;4980347;28;20130;-46
2024/02/18 03:56:57;;;;;;;14.88;9.75;;;9.50;99.90;;;;;;4980174;28;20059;-49
2024/02/18 03:59:25;;;;;;;16.10;10.32;;;9.50;99.90;;;;;;4979406;28;20177;-43
2024/02/18 04:01:52;;;;;;;15.18;9.68;;;9.40;99.90;;;;;;4977444;28;20057;-45
2024/02/18 04:04:19;;;;;;;15.23;9.43;;;9.40;99.90;;;;;;4974568;28;20206;-44
2024/02/18 04:06:47;;;;;;;14.45;9.00;;;9.40;99.90;;;;;;4975209;28;20074;-48
2024/02/18 04:09:14;;;;;;;15.35;9.02;;;9.40;99.90;;;;;;4977552;28;20581;-43
2024/02/18 04:11:41;;;;;;;14.15;9.20;;;9.40;99.90;;;;;;4977451;28;20057;-45
2024/02/18 04:14:08;;;;;;;14.45;9.57;;;9.40;99.90;;;;;;4976084;28;20046;-43
2024/02/18 04:16:35;;;;;;;13.10;9.05;;;9.40;99.90;;;;;;4972559;28;20133;-50
2024/02/18 04:19:02;;;;;;;13.35;9.00;;;9.30;99.90;;;;;;4971079;28;20512;-42
2024/02/18 04:21:30;;;;;;;13.25;8.57;;;9.30;99.90;;;;;;4974086;28;20126;-42
2024/02/18 04:23:57;;;;;;;14.85;9.25;;;9.40;99.90;;;;;;4976322;28;21215;-44
2024/02/18 04:26:24;;;;;;;14.07;8.90;;;9.40;99.90;;;;;;4967545;28;20047;-45
2024/02/18 04:28:51;;;;;;;15.95;9.18;;;9.40;99.90;;;;;;4973685;28;20046;-42
2024/02/18 04:31:18;;;;;;;12.70;9.07;;;9.30;99.90;;;;;;4971131;28;20054;-47
2024/02/18 04:33:45;;;;;;;14.65;9.10;;;9.30;99.90;;;;;;4979981;28;20104;-44
2024/02/18 04:36:12;;;;;;;15.48;9.25;;;9.30;99.90;;;;;;4984050;28;20287;-46
2024/02/18 04:38:39;;;;;;;12.02;8.75;;;9.30;99.90;;;;;;4982169;28;20069;-47
2024/02/18 04:41:07;;;;;;;13.73;8.43;;;9.30;99.90;;;;;;4972830;28;20208;-45
2024/02/18 04:43:33;;;;;;;14.75;9.80;;;9.30;99.90;;;;;;4967837;28;20057;-48
2024/02/18 04:46:00;;;;;;;16.05;9.38;;;9.30;99.90;;;;;;4970412;28;20068;-43
2024/02/18 04:48:28;;;;;;;15.75;9.82;;;9.30;99.90;;;;;;4977895;28;20048;-44
2024/02/18 04:50:55;;;;;;;14.40;9.50;;;9.20;99.90;;;;;;4970802;28;20077;-46
2024/02/18 04:53:22;;;;;;;19.10;9.80;;;9.30;99.90;;;;;;4978867;28;20113;-45
2024/02/18 04:55:50;;;;;;;13.02;9.00;;;9.20;99.90;;;;;;4966807;28;20141;-45
2024/02/18 04:58:17;;;;;;;16.75;9.00;;;9.20;99.90;;;;;;4968041;28;20154;-43
2024/02/18 05:00:43;;;;;;;14.15;9.55;;;9.30;99.90;;;;;;4970917;28;20046;-46
2024/02/18 05:03:10;;;;;;;17.17;11.07;;;9.20;99.90;;;;;;4972601;28;20043;-45
2024/02/18 05:05:37;;;;;;;17.27;10.07;;;9.20;99.90;;;;;;4974828;28;20047;-46
2024/02/18 05:08:05;;;;;;;17.10;9.70;;;9.20;99.90;;;;;;4971965;28;20129;-43
2024/02/18 05:10:32;;;;;;;13.57;8.95;;;9.20;99.90;;;;;;4976254;28;20134;-43
2024/02/18 05:12:58;;;;;;;16.40;9.10;;;9.20;99.90;;;;;;4968648;28;20122;-48
2024/02/18 05:15:25;;;;;;;17.50;9.90;;;9.20;99.90;;;;;;4972153;28;20489;-44
2024/02/18 05:17:52;;;;;;;13.43;8.85;;;9.20;99.90;;;;;;4973401;28;20046;-42
2024/02/18 05:20:19;;;;;;;14.82;9.57;;;9.20;99.90;;;;;;4970509;28;20058;-46
2024/02/18 05:22:46;;;;;;;14.50;10.05;;;9.20;99.90;;;;;;4978979;28;20046;-44
2024/02/18 05:25:13;;;;;;;15.32;10.10;;;9.20;99.90;;;;;;4972818;28;20051;-45
2024/02/18 05:27:40;;;;;;;23.02;14.27;;;9.10;99.90;;;;;;4974423;28;20141;-46
2024/02/18 05:30:08;;;;;;;17.35;10.65;;;9.00;99.90;;;;;;4971390;28;20790;-45
2024/02/18 05:32:34;;;;;;;18.75;11.43;;;9.00;99.90;;;;;;4976978;28;20055;-44
2024/02/18 05:35:02;;;;;;;14.98;10.32;;;9.00;99.90;;;;;;4971406;28;20043;-45
2024/02/18 05:37:29;;;;;;;14.68;10.23;;;9.00;99.90;;;;;;4977431;28;20101;-44
2024/02/18 05:39:56;;;;;;;15.88;9.60;;;9.00;99.90;;;;;;4973094;28;20049;-44
2024/02/18 05:42:23;;;;;;;14.50;9.13;;;9.00;99.90;;;;;;4976356;28;20059;-45
2024/02/18 05:44:50;;;;;;;16.17;9.20;;;9.00;99.90;;;;;;4970269;28;20046;-43
2024/02/18 05:47:17;;;;;;;14.60;9.52;;;9.00;99.90;;;;;;4972525;28;20074;-46
2024/02/18 05:49:44;;;;;;;13.20;9.55;;;8.90;99.90;;;;;;4971814;28;20046;-45
2024/02/18 05:52:11;;;;;;;14.63;9.23;;;8.90;99.90;;;;;;4973928;28;20074;-46
2024/02/18 05:54:38;;;;;;;16.42;8.68;;;8.90;99.90;;;;;;4964280;28;20097;-47
2024/02/18 05:57:06;;;;;;;14.38;9.25;;;8.90;99.90;;;;;;4967584;28;20079;-45
2024/02/18 05:59:33;;;;;;;13.73;9.52;;;8.90;99.90;;;;;;4971516;28;20142;-46
2024/02/18 06:02:00;;;;;;;16.92;9.75;;;8.90;99.90;;;;;;4970098;28;20474;-42
2024/02/18 06:04:27;;;;;;;14.68;9.20;;;8.90;99.90;;;;;;4973741;28;20055;-43
2024/02/18 06:06:54;;;;;;;14.90;9.35;;;8.80;99.90;;;;;;4973283;28;20042;-47
2024/02/18 06:09:23;;;;;;;15.70;8.73;;;8.80;99.90;;;;;;4974876;28;20058;-44
2024/02/18 06:11:53;;;;;;;14.10;9.30;;;8.80;99.90;;;;;;4971721;28;20474;-43
2024/02/18 06:14:21;;;;;;;16.83;9.48;;;8.70;99.90;;;;;;4974163;28;20126;-46
2024/02/18 06:16:48;;;;;;;15.90;10.77;;;8.70;99.90;;;;;;4973203;28;20401;-44
2024/02/18 06:19:15;;;;;;;15.57;9.25;;;8.70;99.90;;;;;;4970818;28;20045;-43
2024/02/18 06:21:43;;;;;;;14.77;9.68;;;8.70;99.90;;;;;;4977084;28;20541;-43
2024/02/18 06:24:11;;;;;;;15.93;9.02;;;8.70;99.90;;;;;;4976451;28;20072;-45
2024/02/18 06:26:41;;;;;;;17.80;11.02;;;8.70;99.90;;;;;;4971201;28;20098;-47
2024/02/18 06:29:09;;;;;;;14.38;10.20;;;8.60;99.90;;;;;;4971274;28;20508;-44
2024/02/18 06:31:35;;;;;;;18.98;10.90;;;8.60;99.90;;;;;;4974415;28;20046;-42
2024/02/18 06:34:02;;;;;;;18.77;12.63;;;8.60;99.90;;;;;;4973164;28;20784;-42
2024/02/18 06:36:35;;;;;;;16.30;10.63;;;8.60;99.90;;;;;;4977017;28;20079;-42
2024/02/18 06:39:03;;;;;;;23.40;13.82;;;8.70;99.90;;;;;;4976563;28;20176;-44
2024/02/18 06:41:31;;;;;;;18.10;11.15;;;8.70;99.90;;;;;;4975007;28;20077;-43
2024/02/18 06:43:58;;;;;;;20.90;12.88;;;8.70;99.90;;;;;;4981821;28;20046;-44
2024/02/18 06:46:25;;;;;;;18.40;10.68;;;8.80;99.90;;;;;;4976941;28;20528;-44
2024/02/18 06:48:52;;;;;;;14.85;10.10;;;8.80;99.90;;;;;;4985529;28;20140;-44
2024/02/18 06:51:19;;;;;;;18.65;11.05;;;8.80;99.90;;;;;;4977763;28;20055;-45
2024/02/18 06:53:46;;;;;;;15.90;10.10;;;8.90;99.90;;;;;;4983154;28;20471;-45
2024/02/18 06:56:17;;;;;;;15.98;9.73;;;8.90;99.90;;;;;;4978576;28;20125;-43
2024/02/18 06:58:44;;;;;;;15.10;9.55;;;9.00;99.90;;;;;;4970251;28;20054;-46
2024/02/18 07:01:13;;;;;;;13.00;8.70;;;9.00;99.90;;;;;;4978678;28;20119;-46
2024/02/18 07:03:40;;;;;;;16.10;9.35;;;9.10;99.90;;;;;;4977397;28;20034;-47
2024/02/18 07:06:07;;;;;;;13.95;8.88;;;9.20;99.90;;;;;;4980108;28;20051;-45
2024/02/18 07:08:33;;;;;;;15.05;8.20;;;9.20;99.90;;;;;;4972578;28;20241;-46
2024/02/18 07:11:00;;;;;;;12.90;8.35;;;9.30;99.90;;;;;;4977685;28;20522;-44
2024/02/18 07:13:27;;;;;;;12.82;8.77;;;9.40;99.90;;;;;;4968895;28;20543;-44
2024/02/18 07:15:54;;;;;;;16.08;8.80;;;9.50;99.90;;;;;;4966772;28;20861;-43
2024/02/18 07:18:21;;;;;;;13.00;8.63;;;9.50;99.90;;;;;;4967377;28;20126;-44
2024/02/18 07:20:49;;;;;;;13.25;8.27;;;9.60;99.90;;;;;;4970496;28;20161;-45
2024/02/18 07:23:15;;;;;;;14.63;8.18;;;9.70;99.90;;;;;;4971560;28;20061;-43
2024/02/18 07:25:44;;;;;;;14.18;9.07;;;9.80;99.90;;;;;;4973273;28;20133;-45
2024/02/18 07:28:11;;;;;;;15.05;10.52;;;9.90;99.90;;;;;;4961346;28;20046;-44
2024/02/18 07:30:39;;;;;;;15.07;9.75;;;10.00;99.90;;;;;;4974902;28;20129;-42
2024/02/18 07:33:05;;;;;;;15.60;10.35;;;10.10;99.90;;;;;;4970601;28;20043;-43
2024/02/18 07:35:33;;;;;;;13.02;8.73;;;10.20;99.90;;;;;;4976878;28;20601;-53
2024/02/18 07:37:59;;;;;;;19.55;10.35;;;10.20;99.90;;;;;;4971013;28;20145;-42
2024/02/18 07:40:26;;;;;;;20.83;12.70;;;10.30;99.90;;;;;;4973216;28;20133;-45
2024/02/18 07:42:53;;;;;;;17.20;9.18;;;10.30;99.90;;;;;;4965030;28;20046;-42
2024/02/18 07:45:20;;;;;;;12.18;8.38;;;10.30;99.90;;;;;;4974477;28;20492;-41
2024/02/18 07:47:47;;;;;;;12.52;9.10;;;10.30;99.90;;;;;;4974101;28;20050;-43
2024/02/18 07:50:14;;;;;;;14.32;8.82;;;10.20;99.90;;;;;;4965215;28;20046;-42
2024/02/18 07:52:41;;;;;;;12.60;8.57;;;10.20;99.90;;;;;;4976644;28;20082;-43
2024/02/18 07:55:08;;;;;;;14.07;9.20;;;10.30;99.90;;;;;;4970639;28;20483;-45
2024/02/18 07:57:35;;;;;;;13.30;8.82;;;10.20;99.90;;;;;;4969355;28;20050;-46
2024/02/18 08:00:03;;;;;;;14.40;8.20;;;10.20;99.90;;;;;;4972301;28;20055;-42
2024/02/18 08:02:31;;;;;;;14.52;8.77;;;10.20;99.90;;;;;;4968305;28;20081;-45
2024/02/18 08:04:58;;;;;;;12.05;8.50;;;10.10;99.90;;;;;;4970216;28;20070;-45
2024/02/18 08:07:27;;;;;;;14.45;9.25;;;10.10;99.90;;;;;;4973841;28;20042;-44
2024/02/18 08:09:54;;;;;;;15.55;9.13;;;10.00;99.90;;;;;;4972706;28;20540;-44
2024/02/18 08:12:21;;;;;;;14.73;9.35;;;10.10;99.90;;;;;;4968275;28;20055;-46
2024/02/18 08:14:48;;;;;;;12.27;9.02;;;10.10;99.90;;;;;;4970053;28;20081;-46
2024/02/18 08:17:15;;;;;;;14.48;9.50;;;10.10;99.90;;;;;;4968417;28;20057;-45
2024/02/18 08:19:43;;;;;;;14.80;8.90;;;10.10;99.90;;;;;;4969163;28;20039;-45
2024/02/18 08:22:10;;;;;;;15.52;8.48;;;10.20;99.90;;;;;;4965066;28;20047;-47
2024/02/18 08:24:37;;;;;;;15.02;9.15;;;10.20;99.90;;;;;;4968209;28;20062;-47
2024/02/18 08:27:04;;;;;;;11.88;8.20;;;10.30;99.90;;;;;;4967799;28;20071;-45
2024/02/18 08:29:31;;;;;;;13.38;8.77;;;10.30;99.90;;;;;;4970871;28;20113;-42
2024/02/18 08:32:02;;;;;;;20.65;12.13;;;10.40;99.90;;;;;;4973459;28;20162;-45
2024/02/18 08:34:29;;;;;;;18.15;9.88;;;10.40;99.90;;;;;;4969292;28;20094;-41
2024/02/18 08:36:57;;;;;;;13.15;9.15;;;10.40;99.90;;;;;;4970238;28;20070;-46
2024/02/18 08:39:24;;;;;;;21.23;10.98;;;10.40;99.90;;;;;;4978045;28;20109;-44
2024/02/18 08:41:55;;;;;;;14.07;9.63;;;10.50;99.90;;;;;;4975436;28;20109;-46
2024/02/18 08:44:22;;;;;;;14.50;9.55;;;10.60;99.90;;;;;;4971497;28;20113;-45
2024/02/18 08:46:50;;;;;;;16.75;10.52;;;10.60;99.90;;;;;;4973258;28;20164;-47
2024/02/18 08:49:17;;;;;;;16.23;10.48;;;10.70;99.90;;;;;;4968338;28;20070;-43
2024/02/18 08:51:44;;;;;;;14.40;9.98;;;10.80;99.90;;;;;;4974251;28;20402;-45
2024/02/18 08:54:11;;;;;;;17.33;11.30;;;11.00;99.90;;;;;;4976301;28;20504;-46
2024/02/18 08:56:38;;;;;;;17.65;10.77;;;11.10;99.90;;;;;;4975050;28;20046;-44
2024/02/18 08:59:06;;;;;;;16.38;11.55;;;11.20;99.90;;;;;;4964937;28;20043;-50
2024/02/18 09:01:34;;;;;;;20.95;11.00;;;11.20;99.90;;;;;;4975838;28;20082;-45
2024/02/18 09:04:01;;;;;;;19.35;11.60;;;11.40;99.90;;;;;;4973080;28;20047;-46
2024/02/18 09:06:28;;;;;;;17.88;11.95;;;11.50;99.90;;;;;;4977596;28;20101;-45
2024/02/18 09:08:56;;;;;;;19.60;12.10;;;11.40;99.90;;;;;;4970657;28;20109;-46
2024/02/18 09:11:23;;;;;;;17.30;10.88;;;11.60;99.90;;;;;;4965615;28;20047;-43
2024/02/18 09:13:50;;;;;;;17.48;10.70;;;11.60;99.90;;;;;;4973883;28;20034;-42
2024/02/18 09:16:17;;;;;;;21.45;13.07;;;11.80;99.90;;;;;;4972021;28;20069;-47
2024/02/18 09:18:45;;;;;;;22.67;12.63;;;11.90;99.90;;;;;;4968791;28;20502;-49
2024/02/18 09:21:13;;;;;;;18.58;11.63;;;12.10;99.90;;;;;;4969039;28;20587;-40
2024/02/18 09:23:39;;;;;;;19.27;11.13;;;12.10;99.90;;;;;;4971070;28;20594;-41
2024/02/18 09:26:09;;;;;;;20.65;12.82;;;12.30;99.90;;;;;;4969881;28;20039;-44
2024/02/18 09:28:36;;;;;;;18.55;10.60;;;12.40;99.90;;;;;;4972812;28;20043;-42
2024/02/18 09:31:04;;;;;;;20.35;11.45;;;12.50;99.90;;;;;;4969292;28;20085;-42
2024/02/18 09:33:31;;;;;;;16.00;10.13;;;12.70;99.90;;;;;;4966818;28;20102;-45
2024/02/18 09:35:59;;;;;;;18.15;11.07;;;12.80;99.90;;;;;;4970605;28;20532;-47
2024/02/18 09:38:26;;;;;;;16.23;10.85;;;12.80;99.90;;;;;;4972503;28;20042;-45
2024/02/18 09:40:54;;;;;;;17.27;10.98;;;13.00;99.90;;;;;;4972070;28;20126;-43
2024/02/18 09:43:24;;;;;;;15.00;10.20;;;13.10;99.90;;;;;;4970544;28;20087;-45
2024/02/18 09:45:53;;;;;;;15.18;10.40;;;13.20;99.90;;;;;;4970828;28;20073;-42
2024/02/18 09:48:21;;;;;;;13.77;9.32;;;13.50;99.90;;;;;;4972715;28;20061;-44
2024/02/18 09:50:49;;;;;;;16.23;9.70;;;13.70;99.90;;;;;;4970032;28;20042;-42
2024/02/18 09:53:17;;;;;;;18.42;9.55;;;14.00;99.90;;;;;;4974873;28;20074;-43
2024/02/18 09:55:46;;;;;;;15.43;9.15;;;13.80;99.90;;;;;;4974945;28;20061;-43
2024/02/18 09:58:14;;;;;;;14.52;8.65;;;14.00;99.90;;;;;;4978361;28;20085;-47
2024/02/18 10:00:42;;;;;;;15.02;8.95;;;14.20;99.90;;;;;;4967062;28;20074;-45
2024/02/18 10:03:09;;;;;;;14.93;8.90;;;14.40;99.90;;;;;;4969775;28;20054;-43
2024/02/18 10:05:36;;;;;;;14.48;8.10;;;14.60;99.90;;;;;;4969868;28;20051;-44
2024/02/18 10:08:04;;;;;;;12.73;8.07;;;14.90;99.90;;;;;;4968134;28;20496;-43
2024/02/18 10:10:34;;;;;;;10.02;7.05;;;15.00;99.90;;;;;;4977395;28;20054;-44
2024/02/18 10:13:04;;;;;;;10.68;7.82;;;15.10;99.90;;;;;;4969852;28;20035;-45
2024/02/18 10:15:31;;;;;;;10.93;7.50;;;15.10;99.90;;;;;;4972305;28;20479;-47
2024/02/18 10:17:58;;;;;;;12.52;7.30;;;15.00;99.90;;;;;;4969396;28;20129;-46
2024/02/18 10:20:30;;;;;;;11.02;7.13;;;14.90;99.90;;;;;;4975662;28;20065;-45
2024/02/18 10:22:57;;;;;;;10.25;7.53;;;14.80;99.90;;;;;;4969115;28;20051;-48
2024/02/18 10:25:24;;;;;;;11.48;7.03;;;14.50;99.90;;;;;;4971691;28;20059;-47
2024/02/18 10:27:57;;;;;;;10.60;7.10;;;14.60;99.90;;;;;;4970104;28;20076;-44
2024/02/18 10:30:24;;;;;;;7.45;5.32;;;14.40;99.90;;;;;;4965755;28;20094;-49
2024/02/18 10:32:51;;;;;;;10.00;5.22;;;14.60;99.90;;;;;;4969910;28;20046;-44
2024/02/18 10:35:18;;;;;;;9.45;6.05;;;14.50;99.90;;;;;;4971624;28;20053;-45
2024/02/18 10:37:52;;;;;;;8.15;5.90;;;14.60;99.90;;;;;;4970460;28;20113;-44
2024/02/18 10:40:34;;;;;;;7.32;5.65;;;14.50;99.90;;;;;;4973697;28;20043;-44
2024/02/18 10:43:03;;;;;;;7.63;5.47;;;14.60;99.90;;;;;;4965613;28;20078;-47
2024/02/18 10:45:30;;;;;;;7.63;5.53;;;15.00;99.90;;;;;;4963460;28;20050;-50
2024/02/18 10:48:01;;;;;;;7.32;5.55;;;15.30;99.90;;;;;;4968567;28;20041;-46
2024/02/18 10:50:34;;;;;;;7.00;5.32;;;15.50;99.90;;;;;;4970014;28;20057;-45
2024/02/18 10:53:14;;;;;;;7.93;5.50;;;15.70;99.90;;;;;;4972159;28;20121;-46
2024/02/18 10:56:08;;;;;;;7.75;5.40;;;15.50;99.90;;;;;;4969154;28;20042;-46
2024/02/18 10:58:35;;;;;;;10.88;6.82;;;15.60;99.90;;;;;;4967124;28;20047;-45
2024/02/18 11:01:03;;;;;;;7.13;5.22;;;15.70;99.90;;;;;;4966525;28;20531;-42
2024/02/18 11:03:56;;;;;;;7.78;5.30;;;15.90;99.90;;;;;;4976748;28;20046;-47
2024/02/18 11:06:23;;;;;;;7.68;5.13;;;15.70;99.90;;;;;;4969576;28;20216;-49
2024/02/18 11:08:52;;;;;;;7.57;5.13;;;16.00;99.90;;;;;;4973248;28;20490;-46
2024/02/18 11:11:20;;;;;;;5.35;4.47;;;16.20;99.90;;;;;;4984334;28;20318;-45
2024/02/18 11:13:50;;;;;;;7.45;4.68;;;16.00;99.90;;;;;;4978655;28;20043;-42
2024/02/18 11:16:17;;;;;;;4.90;4.25;;;15.60;99.90;;;;;;4973090;28;20500;-43
2024/02/18 11:18:44;;;;;;;5.93;4.32;;;15.70;99.90;;;;;;4970399;28;20047;-46
2024/02/18 11:21:14;;;;;;;6.57;4.32;;;16.00;99.90;;;;;;4972309;28;20082;-44
2024/02/18 11:24:08;;;;;;;6.88;4.03;;;16.30;99.90;;;;;;4977177;28;20046;-44
2024/02/18 11:26:35;;;;;;;4.82;3.67;;;16.40;99.90;;;;;;4972914;28;20065;-44
2024/02/18 11:29:02;;;;;;;4.57;3.92;;;16.20;99.90;;;;;;4971244;28;20480;-43
2024/02/18 11:31:30;;;;;;;5.07;4.15;;;16.30;99.90;;;;;;4975075;28;20055;-42
2024/02/18 11:33:57;;;;;;;6.50;4.43;;;16.30;99.90;;;;;;4972857;28;20219;-47
2024/02/18 11:36:28;;;;;;;7.18;4.43;;;15.80;99.90;;;;;;4971548;28;20051;-45
2024/02/18 11:38:57;;;;;;;5.97;4.40;;;15.40;99.90;;;;;;4975036;28;20109;-43
2024/02/18 11:41:32;;;;;;;5.72;4.00;;;15.50;99.90;;;;;;4974530;28;20051;-46
2024/02/18 11:44:05;;;;;;;7.00;4.40;;;15.30;99.90;;;;;;4973560;28;20038;-46
2024/02/18 11:46:36;;;;;;;6.57;4.57;;;15.50;99.90;;;;;;4965831;28;20047;-45
2024/02/18 11:49:03;;;;;;;6.53;4.35;;;15.40;99.90;;;;;;4968245;28;20412;-44
2024/02/18 11:51:30;;;;;;;7.45;5.25;;;15.20;99.90;;;;;;4971755;28;20046;-43
2024/02/18 11:53:57;;;;;;;6.40;4.38;;;15.10;99.90;;;;;;4972498;28;20081;-44
2024/02/18 11:56:25;;;;;;;7.80;4.47;;;15.10;99.90;;;;;;4954319;28;20050;-42
2024/02/18 11:58:54;;;;;;;7.75;4.88;;;14.90;99.90;;;;;;4969023;28;20042;-45
2024/02/18 12:01:21;;;;;;;6.10;4.55;;;15.00;99.90;;;;;;4976499;28;20149;-46
2024/02/18 12:03:48;;;;;;;5.80;4.68;;;15.00;99.90;;;;;;4970115;28;20074;-45
2024/02/18 12:06:15;;;;;;;6.18;4.88;;;15.00;99.90;;;;;;4982550;28;20055;-43
2024/02/18 12:08:42;;;;;;;9.82;4.60;;;15.00;99.90;;;;;;4975314;28;20070;-46
2024/02/18 12:11:09;;;;;;;6.05;4.40;;;15.10;99.90;;;;;;4975701;28;20078;-43
2024/02/18 12:13:36;;;;;;;7.93;4.78;;;15.00;99.90;;;;;;4979326;28;20074;-44
2024/02/18 12:16:05;;;;;;;7.85;4.78;;;15.30;99.90;;;;;;4978006;28;20050;-44
2024/02/18 12:18:33;;;;;;;9.35;4.70;;;15.20;99.90;;;;;;4977797;28;20055;-45
2024/02/18 12:21:00;;;;;;;7.35;5.00;;;15.30;99.90;;;;;;4978626;28;20141;-46
2024/02/18 12:23:27;;;;;;;4.90;4.28;;;15.40;99.90;;;;;;4969402;28;20504;-42
2024/02/18 12:25:54;;;;;;;5.35;3.88;;;15.50;99.90;;;;;;4971546;28;20047;-43
2024/02/18 12:28:21;;;;;;;5.10;4.20;;;15.60;99.90;;;;;;4972567;28;20053;-49
2024/02/18 12:30:50;;;;;;;5.35;4.53;;;15.90;99.90;;;;;;4979780;28;20050;-44
2024/02/18 12:33:18;;;;;;;5.60;4.50;;;16.60;99.90;;;;;;4973720;28;20078;-43
2024/02/18 12:35:46;;;;;;;5.07;4.22;;;16.90;99.90;;;;;;4976611;28;20176;-42
2024/02/18 12:38:13;;;;;;;5.88;4.70;;;17.20;99.90;;;;;;4971604;28;20070;-44
2024/02/18 12:40:40;;;;;;;5.70;4.20;;;17.40;99.90;;;;;;4976932;28;20078;-45
2024/02/18 12:43:08;;;;;;;6.75;4.95;;;17.30;99.90;;;;;;4971291;28;20116;-41